Terminal Aerodrome Forecast
Issued by NWS Brownsville, TX

Home | Current Version | Previous Version | Text Only | Print | Product List | Glossary On
Versions: 1 2 3 4 5 6 7 8 9 10 11 12 13 14 15 16 17 18 19 20
000
FTUS44 KBRO 081139
TAFBRO
TAF
KBRO 081139Z 0812/0912 35015G25KT 4SM -RA BR OVC007
      TEMPO 0812/0815 2SM RA OVC004
     FM081500 34018G26KT 5SM -RA BR OVC007
     FM081800 34022G30KT 5SM -DZ BR OVC007
     FM090000 33018G25KT 5SM -DZ BR OVC007
     FM090600 33015KT 5SM BR OVC012=

USA.gov is the U.S. government's official web portal to all federal, state and local government web resources and services.